Time;durP1;ratioP1;P1;durP2;ratioP2;P2;SDS_P1;SDS_P2;PMS_P1;PMS_P2;Temp;Humidity;BMP_temperature;BMP_pressure;BME280_temperature;BME280_humidity;BME280_pressure;Samples;Min_cycle;Max_cycle;Signal;HPM_P1;HPM_P2
2023/04/01 00:01:38;;;;;;;15.70;10.27;;;9.80;99.90;;;;;;5113747;28;20043;-73
2023/04/01 00:04:03;;;;;;;14.32;9.88;;;9.80;99.90;;;;;;5115580;28;20044;-74
2023/04/01 00:06:29;;;;;;;14.40;10.13;;;9.80;99.90;;;;;;5121815;28;20039;-74
2023/04/01 00:08:55;;;;;;;13.90;10.30;;;9.80;99.90;;;;;;5120167;28;20058;-75
2023/04/01 00:11:20;;;;;;;13.98;10.75;;;9.80;99.90;;;;;;5122443;28;20039;-73
2023/04/01 00:13:47;;;;;;;13.20;10.10;;;9.80;99.90;;;;;;5119091;28;20040;-73
2023/04/01 00:16:13;;;;;;;15.95;10.48;;;9.70;99.90;;;;;;5115752;28;20040;-74
2023/04/01 00:18:39;;;;;;;14.70;9.73;;;9.70;99.90;;;;;;5118211;28;20480;-72
2023/04/01 00:21:05;;;;;;;17.83;9.80;;;9.70;99.90;;;;;;5125990;28;20108;-72
2023/04/01 00:23:31;;;;;;;13.52;10.50;;;9.80;99.90;;;;;;5121887;28;20488;-73
2023/04/01 00:26:02;;;;;;;15.50;10.68;;;9.70;99.90;;;;;;5120323;27;20130;-72
2023/04/01 00:28:28;;;;;;;17.10;10.77;;;9.70;99.90;;;;;;5116317;28;20071;-72
2023/04/01 00:30:54;;;;;;;16.25;10.77;;;9.80;99.90;;;;;;5132179;27;20047;-73
2023/04/01 00:33:20;;;;;;;15.95;10.55;;;9.70;99.90;;;;;;5126197;28;20499;-72
2023/04/01 00:35:46;;;;;;;17.98;10.77;;;9.70;99.90;;;;;;5125416;28;20143;-72
2023/04/01 00:38:12;;;;;;;17.38;11.00;;;9.80;99.90;;;;;;5131841;28;20036;-73
2023/04/01 00:40:43;;;;;;;14.07;10.20;;;9.70;99.90;;;;;;5131370;28;20099;-74
2023/04/01 00:43:17;;;;;;;13.63;9.23;;;9.70;99.90;;;;;;5122744;28;20515;-74
2023/04/01 00:45:45;;;;;;;13.63;9.35;;;9.70;99.90;;;;;;5127222;27;20127;-73
2023/04/01 00:48:18;;;;;;;17.60;10.40;;;9.80;99.90;;;;;;5121951;28;20050;-74
2023/04/01 00:50:50;;;;;;;16.42;10.30;;;9.70;99.90;;;;;;5123139;28;20043;-74
2023/04/01 00:53:18;;;;;;;15.10;9.50;;;9.70;99.90;;;;;;5127046;27;20135;-73
2023/04/01 00:55:51;;;;;;;17.88;10.73;;;9.70;99.90;;;;;;5134715;27;20064;-73
2023/04/01 00:58:20;;;;;;;18.92;10.70;;;9.70;99.90;;;;;;5131319;27;20031;-73
2023/04/01 01:00:48;;;;;;;15.25;10.40;;;9.80;99.90;;;;;;5131159;27;20118;-73
2023/04/01 01:03:14;;;;;;;16.90;10.85;;;9.70;99.90;;;;;;5124911;27;20046;-73
2023/04/01 01:05:46;;;;;;;14.52;10.15;;;9.70;99.90;;;;;;5125036;27;20044;-73
2023/04/01 01:08:24;;;;;;;21.30;11.40;;;9.70;99.90;;;;;;5122644;27;20100;-73
2023/04/01 01:10:50;;;;;;;15.15;10.38;;;9.70;99.90;;;;;;5103110;27;20422;-73
2023/04/01 01:13:40;;;;;;;15.75;11.20;;;9.70;99.90;;;;;;5119783;27;20043;-73
2023/04/01 01:16:34;;;;;;;16.77;10.82;;;9.70;99.90;;;;;;5129840;27;20039;-73
2023/04/01 01:19:38;;;;;;;16.05;10.23;;;9.70;99.90;;;;;;5135464;27;20043;-73
2023/04/01 01:22:21;;;;;;;19.88;11.48;;;9.70;99.90;;;;;;5107128;27;20038;-72
2023/04/01 01:25:24;;;;;;;17.73;11.27;;;9.70;99.90;;;;;;5132320;27;20047;-73
2023/04/01 01:28:09;;;;;;;18.52;11.40;;;9.70;99.90;;;;;;5137274;27;20055;-72
2023/04/01 01:30:55;;;;;;;16.67;10.77;;;9.60;99.90;;;;;;5115950;27;20086;-73
2023/04/01 01:33:35;;;;;;;16.98;11.80;;;9.70;99.90;;;;;;5125034;27;20039;-73
2023/04/01 01:36:06;;;;;;;15.88;11.20;;;9.70;99.90;;;;;;5133479;27;20076;-74
2023/04/01 01:38:34;;;;;;;21.00;12.32;;;9.70;99.90;;;;;;5111382;27;20043;-74
2023/04/01 01:41:01;;;;;;;;;;;9.70;99.90;;;;;;5121198;27;20100;-72
2023/04/01 01:43:32;;;;;;;19.73;12.23;;;9.70;99.90;;;;;;5121686;27;19920;-72
2023/04/01 01:46:02;;;;;;;20.00;11.77;;;9.70;99.90;;;;;;5133556;27;20400;-74
2023/04/01 01:48:30;;;;;;;20.02;13.20;;;9.70;99.90;;;;;;5120932;27;20046;-73
2023/04/01 01:50:56;;;;;;;18.95;12.10;;;9.70;99.90;;;;;;5131511;27;20036;-73
2023/04/01 01:53:22;;;;;;;20.00;12.73;;;9.70;99.90;;;;;;5145897;27;20055;-73
2023/04/01 01:55:48;;;;;;;20.08;12.27;;;9.70;99.90;;;;;;5099818;28;20105;-73
2023/04/01 01:58:28;;;;;;;19.17;12.65;;;9.70;99.90;;;;;;5120562;27;20058;-73
2023/04/01 02:01:00;;;;;;;18.75;12.40;;;9.70;99.90;;;;;;5121972;27;20091;-73
2023/04/01 02:03:31;;;;;;;20.38;12.23;;;9.60;99.90;;;;;;5104759;28;20116;-73
2023/04/01 02:05:59;;;;;;;18.52;11.88;;;9.60;99.90;;;;;;5100624;28;20052;-73
2023/04/01 02:08:34;;;;;;;20.20;12.25;;;9.60;99.90;;;;;;5129796;27;20039;-73
2023/04/01 02:11:05;;;;;;;22.05;12.20;;;9.70;99.90;;;;;;5120338;27;20046;-73
2023/04/01 02:13:43;;;;;;;16.75;11.82;;;9.60;99.90;;;;;;5078747;28;20043;-73
2023/04/01 02:16:22;;;;;;;22.45;11.60;;;9.70;99.90;;;;;;5119411;27;20093;-73
2023/04/01 02:18:51;;;;;;;24.42;12.23;;;9.60;99.90;;;;;;5124276;27;20767;-73
2023/04/01 02:21:20;;;;;;;16.98;11.65;;;9.60;99.90;;;;;;5125905;27;20416;-73
2023/04/01 02:23:47;;;;;;;19.25;11.25;;;9.60;99.90;;;;;;5120561;27;20125;-73
2023/04/01 02:26:14;;;;;;;22.05;12.15;;;9.60;99.90;;;;;;5126764;27;20047;-73
2023/04/01 02:28:41;;;;;;;19.33;11.45;;;9.60;99.90;;;;;;5105391;27;20039;-74
2023/04/01 02:31:10;;;;;;;19.98;11.77;;;9.60;99.90;;;;;;5116976;27;20080;-73
2023/04/01 02:33:38;;;;;;;24.10;11.80;;;9.60;99.90;;;;;;5094091;28;20043;-77
2023/04/01 02:36:05;;;;;;;19.33;11.23;;;9.60;99.90;;;;;;5115598;27;20039;-74
2023/04/01 02:38:31;;;;;;;17.60;11.27;;;9.60;99.90;;;;;;5130400;27;20331;-73
2023/04/01 02:41:01;;;;;;;19.23;11.13;;;9.60;99.90;;;;;;5103978;27;20043;-74
2023/04/01 02:43:27;;;;;;;20.42;11.85;;;9.60;99.90;;;;;;5098520;27;20040;-73
2023/04/01 02:45:53;;;;;;;18.80;11.43;;;9.60;99.90;;;;;;5113451;27;20036;-72
2023/04/01 02:48:18;;;;;;;24.45;12.10;;;9.60;99.90;;;;;;5120335;27;20028;-73
2023/04/01 02:50:44;;;;;;;20.02;12.10;;;9.60;99.90;;;;;;5095620;27;20051;-72
2023/04/01 02:53:10;;;;;;;21.33;12.90;;;9.60;99.90;;;;;;5090445;27;20047;-73
2023/04/01 02:55:35;;;;;;;18.75;12.40;;;9.60;99.90;;;;;;5114351;27;20433;-72
2023/04/01 02:58:01;;;;;;;22.65;13.50;;;9.50;99.90;;;;;;5125726;27;20396;-72
2023/04/01 03:00:27;;;;;;;22.27;13.30;;;9.60;99.90;;;;;;5122189;27;20096;-72
2023/04/01 03:02:53;;;;;;;25.65;14.15;;;9.50;99.90;;;;;;5124270;27;20071;-72
2023/04/01 03:05:19;;;;;;;22.08;15.05;;;9.50;99.90;;;;;;5125821;27;20031;-73
2023/04/01 03:07:45;;;;;;;26.60;15.82;;;9.60;99.90;;;;;;5118821;27;20042;-72
2023/04/01 03:10:11;;;;;;;29.40;16.00;;;9.50;99.90;;;;;;5128941;27;20035;-72
2023/04/01 03:12:37;;;;;;;25.00;14.73;;;9.50;99.90;;;;;;5114803;27;20087;-73
2023/04/01 03:15:03;;;;;;;28.05;16.35;;;9.50;99.90;;;;;;5121475;27;20037;-73
2023/04/01 03:17:28;;;;;;;28.90;15.90;;;9.50;99.90;;;;;;5123984;27;20050;-73
2023/04/01 03:19:54;;;;;;;32.88;17.10;;;9.50;99.90;;;;;;5117900;27;20040;-73
2023/04/01 03:22:20;;;;;;;29.00;17.27;;;9.50;99.90;;;;;;5115028;27;20043;-73
2023/04/01 03:24:49;;;;;;;28.48;17.23;;;9.50;99.90;;;;;;5128079;27;20636;-73
2023/04/01 03:27:14;;;;;;;30.77;17.23;;;9.40;99.90;;;;;;5106532;27;20050;-72
2023/04/01 03:29:40;;;;;;;32.40;17.63;;;9.40;99.90;;;;;;5129654;27;20039;-73
2023/04/01 03:32:06;;;;;;;33.42;18.00;;;9.50;99.90;;;;;;5121946;27;20043;-72
2023/04/01 03:34:31;;;;;;;30.70;17.80;;;9.40;99.90;;;;;;5125166;27;20492;-73
2023/04/01 03:36:58;;;;;;;29.52;18.17;;;9.40;99.90;;;;;;5124449;27;20035;-73
2023/04/01 03:39:23;;;;;;;37.85;18.50;;;9.40;99.90;;;;;;5121030;27;20039;-73
2023/04/01 03:41:49;;;;;;;31.55;17.17;;;9.40;99.90;;;;;;5116769;27;20046;-73
2023/04/01 03:44:15;;;;;;;31.50;17.60;;;9.40;99.90;;;;;;5092356;28;20100;-73
2023/04/01 03:46:41;;;;;;;31.27;17.77;;;9.40;99.90;;;;;;5128284;27;20051;-73
2023/04/01 03:49:11;;;;;;;33.60;18.42;;;9.40;99.90;;;;;;5126226;27;20043;-73
2023/04/01 03:51:38;;;;;;;36.03;18.65;;;9.40;99.90;;;;;;5124548;27;20411;-73
2023/04/01 03:54:04;;;;;;;32.53;19.08;;;9.30;99.90;;;;;;5124347;28;20113;-73
2023/04/01 03:56:30;;;;;;;34.42;18.50;;;9.40;99.90;;;;;;5119807;28;20050;-73
2023/04/01 03:58:56;;;;;;;39.60;18.02;;;9.40;99.90;;;;;;5096134;28;20048;-73
2023/04/01 04:01:22;;;;;;;30.08;17.15;;;9.40;99.90;;;;;;5121267;28;20035;-73
2023/04/01 04:03:49;;;;;;;33.97;19.05;;;9.40;99.90;;;;;;5119183;28;20039;-72
2023/04/01 04:06:16;;;;;;;33.35;17.40;;;9.50;99.90;;;;;;5112642;28;20404;-73
2023/04/01 04:08:42;;;;;;;35.45;17.13;;;9.40;99.90;;;;;;5132176;28;20034;-73
2023/04/01 04:11:08;;;;;;;34.63;18.08;;;9.40;99.90;;;;;;5105502;28;20051;-73
2023/04/01 04:13:35;;;;;;;35.60;18.77;;;9.40;99.90;;;;;;5119267;28;20039;-73
2023/04/01 04:16:02;;;;;;;31.75;18.35;;;9.40;99.90;;;;;;5120963;28;20043;-73
2023/04/01 04:18:27;;;;;;;37.33;19.15;;;9.40;99.90;;;;;;5128247;27;20074;-73
2023/04/01 04:20:53;;;;;;;34.30;18.10;;;9.60;99.90;;;;;;5122329;27;20440;-73
2023/04/01 04:23:20;;;;;;;35.42;18.25;;;9.30;99.90;;;;;;5121632;28;20042;-73
2023/04/01 04:26:01;;;;;;;36.45;19.10;;;9.40;99.90;;;;;;5099827;28;20035;-73
2023/04/01 04:28:28;;;;;;;36.03;18.98;;;9.40;99.90;;;;;;5124229;27;20051;-72
2023/04/01 04:30:54;;;;;;;35.25;19.25;;;9.40;99.90;;;;;;5121957;27;20056;-73
2023/04/01 04:33:22;;;;;;;34.13;19.42;;;9.40;99.90;;;;;;5123017;27;20035;-73
2023/04/01 04:35:48;;;;;;;37.80;19.55;;;9.40;99.90;;;;;;5105377;27;20122;-73
2023/04/01 04:38:14;;;;;;;38.60;20.00;;;9.40;99.90;;;;;;5134473;27;20507;-74
2023/04/01 04:40:41;;;;;;;34.40;19.30;;;9.40;99.90;;;;;;5132325;27;20556;-71
2023/04/01 04:43:07;;;;;;;37.80;19.88;;;9.40;99.90;;;;;;5117723;27;20032;-73
2023/04/01 04:45:33;;;;;;;35.63;20.90;;;9.40;99.90;;;;;;5109022;27;20035;-70
2023/04/01 04:47:58;;;;;;;30.83;19.33;;;9.40;99.90;;;;;;5127647;27;20043;-70
2023/04/01 04:50:25;;;;;;;32.58;18.65;;;9.40;99.90;;;;;;5123480;27;20035;-72
2023/04/01 04:52:51;;;;;;;35.60;20.67;;;9.40;99.90;;;;;;5118925;27;20110;-72
2023/04/01 04:55:16;;;;;;;40.20;21.38;;;9.40;99.90;;;;;;5105355;27;20516;-72
2023/04/01 04:57:42;;;;;;;33.95;20.75;;;9.40;99.90;;;;;;5137746;27;20047;-72
2023/04/01 05:00:10;;;;;;;35.65;19.83;;;9.40;99.90;;;;;;5131412;27;20074;-72
2023/04/01 05:02:35;;;;;;;35.30;19.45;;;9.40;99.90;;;;;;5121660;27;20039;-72
2023/04/01 05:05:01;;;;;;;36.10;21.00;;;9.40;99.90;;;;;;5133498;27;20384;-71
2023/04/01 05:07:27;;;;;;;39.13;21.17;;;9.40;99.90;;;;;;5128787;27;20036;-72
2023/04/01 05:09:52;;;;;;;35.75;20.13;;;9.40;99.90;;;;;;5113466;27;20553;-71
2023/04/01 05:12:18;;;;;;;42.15;21.25;;;9.40;99.90;;;;;;5129360;27;20061;-72
2023/04/01 05:14:44;;;;;;;37.45;19.95;;;9.40;99.90;;;;;;5129436;27;20039;-71
2023/04/01 05:17:12;;;;;;;39.45;21.08;;;9.50;99.90;;;;;;5133944;27;20066;-73
2023/04/01 05:19:39;;;;;;;44.13;21.92;;;9.50;99.90;;;;;;5102870;27;20050;-73
2023/04/01 05:22:05;;;;;;;39.10;21.10;;;9.40;99.90;;;;;;5122247;27;20040;-72
2023/04/01 05:24:31;;;;;;;41.83;21.17;;;9.40;99.90;;;;;;5124537;27;20048;-72
2023/04/01 05:26:57;;;;;;;36.17;19.85;;;9.40;99.90;;;;;;5140391;27;20035;-72
2023/04/01 05:29:24;;;;;;;42.97;21.30;;;9.50;99.90;;;;;;5116735;27;20051;-72
2023/04/01 05:31:50;;;;;;;43.33;21.33;;;9.50;99.90;;;;;;5155541;27;20038;-73
2023/04/01 05:34:16;;;;;;;40.03;21.00;;;9.40;99.90;;;;;;5136031;27;20150;-73
2023/04/01 05:36:42;;;;;;;38.08;20.77;;;9.50;99.90;;;;;;5122512;27;20051;-73
2023/04/01 05:39:08;;;;;;;38.10;20.67;;;9.50;99.90;;;;;;5132193;27;20031;-74
2023/04/01 05:41:37;;;;;;;40.03;21.27;;;9.50;99.90;;;;;;5103126;28;20051;-73
2023/04/01 05:44:04;;;;;;;43.22;21.13;;;9.40;99.90;;;;;;5123062;27;20088;-73
2023/04/01 05:46:30;;;;;;;31.92;19.05;;;9.50;99.90;;;;;;5135089;27;20039;-73
2023/04/01 05:48:56;;;;;;;43.10;21.02;;;9.50;99.90;;;;;;5118574;27;20145;-72
2023/04/01 05:51:22;;;;;;;45.22;21.27;;;9.50;99.90;;;;;;5133375;27;20508;-73
2023/04/01 05:53:47;;;;;;;39.42;20.77;;;9.50;99.90;;;;;;5131922;27;20174;-73
2023/04/01 05:56:13;;;;;;;36.15;19.25;;;9.50;99.90;;;;;;5109267;28;20502;-73
2023/04/01 05:58:39;;;;;;;40.97;20.77;;;9.90;99.90;;;;;;5143978;27;20070;-74
2023/04/01 06:01:10;;;;;;;37.92;18.92;;;9.50;99.90;;;;;;5140846;27;20118;-73
2023/04/01 06:03:36;;;;;;;35.58;18.45;;;9.50;99.90;;;;;;5161183;27;20035;-73
2023/04/01 06:06:03;;;;;;;40.42;18.92;;;9.50;99.90;;;;;;5161888;27;20459;-74
2023/04/01 06:08:31;;;;;;;40.35;19.40;;;9.50;99.90;;;;;;5123884;27;20131;-73
2023/04/01 06:11:08;;;;;;;;;;;9.60;99.90;;;;;;5110238;27;20039;-74
2023/04/01 06:13:36;;;;;;;39.10;20.20;;;9.50;99.90;;;;;;5126529;27;19927;-74
2023/04/01 06:16:35;;;;;;;36.85;20.63;;;9.50;99.90;;;;;;5119207;27;20046;-74
2023/04/01 06:19:22;;;;;;;44.03;20.33;;;9.50;99.90;;;;;;5120033;27;20050;-73
2023/04/01 06:22:23;;;;;;;34.72;20.42;;;9.60;99.90;;;;;;5100745;27;20039;-74
2023/04/01 06:25:18;;;;;;;32.53;18.92;;;9.60;99.90;;;;;;5050081;28;20052;-74
2023/04/01 06:28:15;;;;;;;37.67;21.02;;;9.60;99.90;;;;;;5059708;27;20058;-74
2023/04/01 06:30:45;;;;;;;38.80;20.95;;;9.60;99.90;;;;;;5084311;27;20042;-73
2023/04/01 06:33:46;;;;;;;32.65;19.58;;;9.60;99.90;;;;;;5124160;27;20197;-74
2023/04/01 06:36:25;;;;;;;41.10;21.55;;;9.70;99.90;;;;;;5101874;27;20043;-74
2023/04/01 06:39:10;;;;;;;30.55;18.90;;;9.70;99.90;;;;;;5120485;27;20126;-72
2023/04/01 06:42:14;;;;;;;34.03;21.15;;;9.70;99.90;;;;;;5097109;28;20087;-74
2023/04/01 06:44:58;;;;;;;38.33;21.23;;;9.80;99.90;;;;;;5121384;27;20109;-73
2023/04/01 06:47:53;;;;;;;32.28;20.13;;;9.80;99.90;;;;;;5104539;27;20042;-72
2023/04/01 06:50:41;;;;;;;33.72;21.05;;;9.80;99.90;;;;;;5121937;27;20044;-73
2023/04/01 06:53:19;;;;;;;40.83;22.33;;;9.80;99.90;;;;;;5100457;27;20055;-73
2023/04/01 06:55:49;;;;;;;37.00;22.00;;;9.80;99.90;;;;;;5105593;27;20087;-74
2023/04/01 06:58:34;;;;;;;33.67;21.48;;;9.90;99.90;;;;;;5117143;27;20040;-74
2023/04/01 07:01:12;;;;;;;35.05;21.90;;;9.90;99.90;;;;;;5122258;27;20064;-73
2023/04/01 07:03:51;;;;;;;33.15;21.58;;;9.90;99.90;;;;;;5119786;27;20044;-74
2023/04/01 07:06:35;;;;;;;35.05;22.23;;;9.90;99.90;;;;;;5119944;27;20517;-73
2023/04/01 07:09:05;;;;;;;36.70;23.90;;;9.90;99.90;;;;;;5122957;27;20037;-73
2023/04/01 07:11:34;;;;;;;43.53;23.33;;;10.00;99.90;;;;;;5107300;27;20040;-74
2023/04/01 07:14:20;;;;;;;40.95;23.77;;;9.90;99.90;;;;;;5117770;27;20071;-74
2023/04/01 07:16:53;;;;;;;39.22;23.40;;;9.90;99.90;;;;;;5127318;27;20502;-74
2023/04/01 07:19:46;;;;;;;39.95;22.73;;;9.90;99.90;;;;;;5133223;27;20043;-74
2023/04/01 07:22:35;;;;;;;38.45;23.70;;;9.90;99.90;;;;;;5135256;27;20039;-74
2023/04/01 07:25:22;;;;;;;37.93;23.00;;;10.00;99.90;;;;;;5115963;27;20096;-75
2023/04/01 07:27:50;;;;;;;36.33;22.23;;;10.00;99.90;;;;;;5114580;28;20115;-74
2023/04/01 07:30:16;;;;;;;38.58;24.05;;;10.20;99.90;;;;;;5096376;28;20040;-73
2023/04/01 07:33:02;;;;;;;36.92;22.13;;;10.10;99.90;;;;;;5129403;27;20039;-73
2023/04/01 07:35:34;;;;;;;33.63;21.42;;;10.20;99.90;;;;;;5115452;27;20447;-74
2023/04/01 07:38:20;;;;;;;33.45;20.35;;;10.20;99.90;;;;;;5114819;28;20051;-74
2023/04/01 07:41:04;;;;;;;28.75;20.08;;;10.20;99.90;;;;;;5113468;28;20092;-73
2023/04/01 07:43:39;;;;;;;26.15;18.25;;;10.20;99.90;;;;;;5094888;28;20126;-73
2023/04/01 07:46:10;;;;;;;28.65;18.73;;;10.60;99.90;;;;;;5115997;27;20050;-73
2023/04/01 07:48:55;;;;;;;29.55;20.15;;;10.30;99.90;;;;;;5095870;27;20047;-73
2023/04/01 07:51:49;;;;;;;32.10;20.88;;;10.30;99.90;;;;;;5114186;28;20039;-73
2023/04/01 07:54:44;;;;;;;31.48;20.55;;;10.40;99.90;;;;;;5099343;28;20051;-74
2023/04/01 07:57:22;;;;;;;30.38;20.58;;;10.40;99.90;;;;;;5116506;28;20110;-74
2023/04/01 08:00:20;;;;;;;30.87;21.17;;;10.40;99.90;;;;;;5114884;28;20043;-74
2023/04/01 08:03:18;;;;;;;31.52;20.38;;;10.30;99.90;;;;;;5132640;27;20062;-74
2023/04/01 08:05:58;;;;;;;31.27;21.13;;;10.30;99.90;;;;;;5136774;27;20042;-73
2023/04/01 08:08:33;;;;;;;28.33;18.73;;;10.40;99.90;;;;;;5131320;27;20046;-73
2023/04/01 08:11:07;;;;;;;25.77;18.65;;;10.40;99.90;;;;;;5133282;27;20039;-74
2023/04/01 08:13:35;;;;;;;23.52;17.30;;;10.50;99.90;;;;;;5126889;27;20032;-74
2023/04/01 08:16:13;;;;;;;;;;;10.60;99.90;;;;;;5122368;27;20294;-73
2023/04/01 08:18:45;;;;;;;23.13;16.65;;;10.60;99.90;;;;;;5116216;27;19926;-73
2023/04/01 08:21:20;;;;;;;25.65;17.17;;;10.90;99.90;;;;;;5123479;27;20069;-74
2023/04/01 08:23:49;;;;;;;22.02;16.20;;;10.70;99.90;;;;;;5130567;27;20035;-74
2023/04/01 08:26:42;;;;;;;23.67;15.77;;;10.70;99.90;;;;;;5132626;27;20479;-74
2023/04/01 08:29:11;;;;;;;19.92;14.32;;;10.80;99.90;;;;;;5102790;27;20040;-74
2023/04/01 08:31:55;;;;;;;19.73;15.23;;;10.80;99.90;;;;;;5119764;27;20071;-74
2023/04/01 08:34:34;;;;;;;22.30;16.63;;;10.80;99.90;;;;;;5116602;28;20526;-75
2023/04/01 08:37:08;;;;;;;21.98;15.85;;;10.90;99.90;;;;;;5102928;27;20039;-73
2023/04/01 08:39:50;;;;;;;19.55;15.20;;;11.00;99.90;;;;;;5121991;27;20086;-73
2023/04/01 08:42:39;;;;;;;20.75;15.13;;;11.00;99.90;;;;;;5137665;27;20099;-74
2023/04/01 08:45:29;;;;;;;22.60;16.52;;;11.00;99.90;;;;;;5137369;27;20415;-73
2023/04/01 08:48:39;;;;;;;24.80;16.88;;;11.10;99.90;;;;;;5130431;27;20106;-73
2023/04/01 08:51:36;;;;;;;28.95;16.55;;;11.00;99.90;;;;;;5101693;27;20047;-74
2023/04/01 08:54:18;;;;;;;14.55;11.48;;;11.00;99.90;;;;;;5128415;27;20498;-73
2023/04/01 08:57:04;;;;;;;10.57;6.95;;;10.90;99.90;;;;;;5134003;27;20044;-73
2023/04/01 08:59:44;;;;;;;9.93;7.10;;;10.60;99.90;;;;;;5116120;28;20079;-73
2023/04/01 09:02:50;;;;;;;10.27;6.68;;;10.50;99.90;;;;;;5111281;27;20039;-74
2023/04/01 09:05:36;;;;;;;8.98;7.00;;;10.40;99.90;;;;;;5124816;27;20472;-73
2023/04/01 09:08:15;;;;;;;12.85;8.13;;;10.30;99.90;;;;;;5116042;28;20485;-73
2023/04/01 09:10:59;;;;;;;11.07;7.78;;;10.20;99.90;;;;;;5116816;27;20091;-73
2023/04/01 09:13:47;;;;;;;11.38;7.35;;;10.10;99.90;;;;;;5097370;28;20055;-73
2023/04/01 09:16:23;;;;;;;8.23;5.95;;;9.90;99.90;;;;;;5115483;27;20038;-73
2023/04/01 09:19:12;;;;;;;7.28;5.70;;;9.80;99.90;;;;;;5124215;27;20050;-73
2023/04/01 09:21:52;;;;;;;10.70;5.32;;;9.80;99.90;;;;;;5132857;27;20050;-74
2023/04/01 09:24:35;;;;;;;7.47;4.53;;;9.80;99.90;;;;;;5115994;28;20123;-73
2023/04/01 09:27:22;;;;;;;5.88;3.78;;;9.80;99.90;;;;;;5116133;27;20042;-74
2023/04/01 09:30:18;;;;;;;5.47;3.85;;;9.70;99.90;;;;;;5097031;28;20055;-74
2023/04/01 09:33:09;;;;;;;7.57;3.58;;;9.70;99.90;;;;;;5110680;28;20115;-73
2023/04/01 09:35:48;;;;;;;11.23;3.67;;;9.80;99.90;;;;;;5115722;28;20135;-73
2023/04/01 09:38:26;;;;;;;4.85;3.35;;;9.80;99.90;;;;;;5115987;27;20494;-73
2023/04/01 09:41:29;;;;;;;6.97;3.55;;;9.80;99.90;;;;;;5104722;27;20051;-73
2023/04/01 09:44:01;;;;;;;8.02;3.67;;;9.80;99.90;;;;;;5115440;28;20044;-73
2023/04/01 09:46:39;;;;;;;6.35;4.13;;;9.80;99.90;;;;;;5115845;27;20055;-73
2023/04/01 09:49:32;;;;;;;6.03;3.85;;;9.70;99.90;;;;;;5139424;27;20057;-73
2023/04/01 09:52:17;;;;;;;6.78;3.95;;;9.60;99.90;;;;;;5098045;27;20042;-73
2023/04/01 09:54:56;;;;;;;10.07;4.18;;;9.70;99.90;;;;;;5117551;28;20101;-73
2023/04/01 09:57:52;;;;;;;5.18;3.60;;;9.60;99.90;;;;;;5128494;27;20047;-73
2023/04/01 10:01:04;;;;;;;6.65;4.45;;;9.50;99.90;;;;;;5158593;27;20045;-73
2023/04/01 10:03:51;;;;;;;6.70;4.35;;;9.50;99.90;;;;;;5072671;28;20503;-73
2023/04/01 10:06:42;;;;;;;5.72;3.83;;;9.50;99.90;;;;;;5100713;28;20044;-74
2023/04/01 10:09:32;;;;;;;6.03;3.90;;;9.50;99.90;;;;;;5118957;28;20093;-73
2023/04/01 10:12:26;;;;;;;7.60;4.05;;;9.60;99.90;;;;;;5104889;27;20452;-72
2023/04/01 10:14:57;;;;;;;4.88;3.08;;;9.60;99.90;;;;;;5135765;27;20057;-73
2023/04/01 10:17:50;;;;;;;9.20;3.50;;;9.80;99.90;;;;;;5129671;27;20039;-73
2023/04/01 10:20:38;;;;;;;5.43;3.60;;;9.60;99.90;;;;;;5126785;27;20044;-73
2023/04/01 10:23:25;;;;;;;5.40;3.60;;;9.60;99.90;;;;;;5106552;28;20174;-73
2023/04/01 10:26:00;;;;;;;7.18;3.33;;;9.60;99.90;;;;;;5086996;28;20059;-72
2023/04/01 10:28:50;;;;;;;5.75;3.45;;;9.60;99.90;;;;;;5124418;27;20448;-73
2023/04/01 10:31:46;;;;;;;5.40;3.10;;;9.60;99.90;;;;;;5129862;27;20042;-73
2023/04/01 10:34:40;;;;;;;5.40;3.00;;;9.50;99.90;;;;;;5118570;27;20044;-73
2023/04/01 10:37:18;;;;;;;3.90;2.60;;;9.40;99.90;;;;;;5099440;28;20089;-73
2023/04/01 10:40:19;;;;;;;3.47;2.30;;;9.50;99.90;;;;;;5120670;27;20047;-74
2023/04/01 10:43:25;;;;;;;5.28;2.50;;;9.50;99.90;;;;;;5123808;27;20070;-73
2023/04/01 10:46:24;;;;;;;3.90;2.42;;;9.60;99.90;;;;;;5121513;27;20125;-74
2023/04/01 10:49:04;;;;;;;3.53;2.22;;;9.60;99.90;;;;;;5128761;27;20078;-72
2023/04/01 10:51:39;;;;;;;3.35;2.67;;;9.50;99.90;;;;;;5121530;27;20055;-73
2023/04/01 10:54:19;;;;;;;3.50;2.65;;;9.40;99.90;;;;;;5118731;27;20055;-73
2023/04/01 10:57:31;;;;;;;7.38;2.70;;;9.40;99.90;;;;;;5149905;27;20093;-73
2023/04/01 11:00:44;;;;;;;4.68;2.90;;;9.40;99.90;;;;;;5116294;28;20047;-73
2023/04/01 11:04:13;;;;;;;6.03;3.33;;;9.30;99.90;;;;;;5108068;27;20066;-73
2023/04/01 11:07:20;;;;;;;5.40;3.75;;;9.20;99.90;;;;;;5018811;28;20034;-73
2023/04/01 11:10:21;;;;;;;5.63;3.63;;;9.00;99.90;;;;;;5095585;28;20058;-73
2023/04/01 11:13:18;;;;;;;4.72;3.40;;;9.00;99.90;;;;;;5065714;28;20047;-74
2023/04/01 11:16:41;;;;;;;6.82;3.85;;;9.10;99.90;;;;;;5114606;28;20036;-74
2023/04/01 11:19:35;;;;;;;4.40;3.30;;;9.10;99.90;;;;;;5040616;28;20499;-74
2023/04/01 11:22:28;;;;;;;6.25;3.50;;;9.20;99.90;;;;;;5056128;28;20049;-73
2023/04/01 11:25:10;;;;;;;5.50;3.17;;;9.10;99.90;;;;;;5121221;28;20489;-74
2023/04/01 11:27:46;;;;;;;4.40;2.95;;;9.10;99.90;;;;;;5118095;28;20552;-74
2023/04/01 11:30:21;;;;;;;4.93;2.83;;;9.20;99.90;;;;;;5135270;27;20369;-74
2023/04/01 11:33:05;;;;;;;6.57;2.78;;;9.30;99.90;;;;;;5101796;28;20044;-74
2023/04/01 11:35:36;;;;;;;5.15;2.47;;;9.40;99.90;;;;;;5118067;27;20051;-75
2023/04/01 11:38:11;;;;;;;3.70;2.47;;;9.40;99.90;;;;;;5135874;27;20522;-75
2023/04/01 11:41:02;;;;;;;3.80;2.72;;;9.40;99.90;;;;;;5131785;27;20075;-74
2023/04/01 11:43:43;;;;;;;3.88;2.50;;;9.40;99.90;;;;;;5104196;28;20055;-73
2023/04/01 11:46:36;;;;;;;4.32;2.70;;;9.50;99.90;;;;;;5114346;28;20040;-74
2023/04/01 11:49:36;;;;;;;2.70;2.20;;;9.60;99.90;;;;;;5121524;27;20042;-73
2023/04/01 11:52:24;;;;;;;4.47;2.72;;;9.60;99.90;;;;;;5111259;27;20085;-74
2023/04/01 11:55:22;;;;;;;6.20;2.60;;;9.60;99.90;;;;;;5134053;27;20050;-72
2023/04/01 11:58:12;;;;;;;2.97;2.10;;;9.60;99.90;;;;;;5103368;28;20055;-75
2023/04/01 12:01:02;;;;;;;3.75;2.40;;;9.70;99.90;;;;;;5117747;28;20035;-74
2023/04/01 12:03:34;;;;;;;4.45;2.50;;;9.70;99.90;;;;;;5127277;28;20047;-73
2023/04/01 12:06:22;;;;;;;3.00;2.40;;;9.60;99.90;;;;;;5112966;27;20039;-74
2023/04/01 12:08:54;;;;;;;3.35;2.22;;;9.70;99.90;;;;;;5121644;27;20390;-74
2023/04/01 12:11:20;;;;;;;4.88;2.58;;;9.70;99.90;;;;;;5119795;27;20365;-74
2023/04/01 12:14:07;;;;;;;7.07;2.90;;;9.70;99.90;;;;;;5125180;28;20045;-74
2023/04/01 12:16:40;;;;;;;3.92;2.58;;;9.70;99.90;;;;;;5119125;28;20040;-73
2023/04/01 12:19:54;;;;;;;4.32;2.30;;;9.80;99.90;;;;;;5120907;27;20116;-73
2023/04/01 12:22:19;;;;;;;4.55;2.50;;;9.70;99.90;;;;;;5058686;28;20053;-74
2023/04/01 12:24:49;;;;;;;4.20;2.20;;;9.70;99.90;;;;;;5126603;28;20051;-74
2023/04/01 12:28:12;;;;;;;5.80;2.85;;;9.70;99.90;;;;;;5110656;28;20039;-75
2023/04/01 12:31:23;;;;;;;4.53;2.50;;;9.70;99.90;;;;;;5055783;28;20525;-74
2023/04/01 12:34:25;;;;;;;3.88;2.25;;;9.60;99.90;;;;;;5050576;28;20041;-74
2023/04/01 12:37:03;;;;;;;5.38;2.70;;;9.60;99.90;;;;;;5112065;28;20051;-75
2023/04/01 12:39:36;;;;;;;3.50;2.45;;;9.70;99.90;;;;;;5124176;28;20062;-74
2023/04/01 12:42:05;;;;;;;4.35;2.60;;;9.70;99.90;;;;;;5096543;28;20050;-75
2023/04/01 12:44:52;;;;;;;7.00;2.65;;;9.80;99.90;;;;;;5124394;28;20047;-75
2023/04/01 12:47:21;;;;;;;2.88;2.13;;;9.80;99.90;;;;;;5116799;27;20043;-74
2023/04/01 12:49:56;;;;;;;3.70;2.03;;;9.80;99.90;;;;;;5096440;28;20032;-73
2023/04/01 12:52:46;;;;;;;3.67;2.33;;;9.80;99.90;;;;;;5136216;27;20077;-74
2023/04/01 12:55:30;;;;;;;2.80;2.00;;;9.70;99.90;;;;;;5109871;27;20047;-74
2023/04/01 12:58:17;;;;;;;3.10;2.08;;;9.70;99.90;;;;;;5101592;27;20459;-75
2023/04/01 13:00:48;;;;;;;4.78;2.60;;;9.60;99.90;;;;;;5119217;27;20477;-74
2023/04/01 13:03:36;;;;;;;3.65;2.22;;;9.50;99.90;;;;;;5120414;27;20039;-75
2023/04/01 13:06:41;;;;;;;4.07;2.10;;;9.60;99.90;;;;;;5126779;27;20050;-74
2023/04/01 13:09:21;;;;;;;4.47;2.30;;;9.60;99.90;;;;;;5106939;27;20054;-74
2023/04/01 13:12:05;;;;;;;3.10;2.10;;;9.60;99.90;;;;;;5118654;27;20131;-74
2023/04/01 13:15:10;;;;;;;3.22;2.30;;;9.60;99.90;;;;;;5123453;27;20047;-74
2023/04/01 13:18:02;;;;;;;3.88;2.22;;;9.70;99.90;;;;;;5113858;27;20130;-75
2023/04/01 13:20:43;;;;;;;3.63;2.10;;;9.60;99.90;;;;;;5126709;27;20088;-74
2023/04/01 13:23:11;;;;;;;3.25;2.20;;;9.50;99.90;;;;;;5118173;27;20047;-74
2023/04/01 13:25:55;;;;;;;;;;;9.40;99.90;;;;;;5112242;27;20050;-74
2023/04/01 13:28:30;;;;;;;2.95;2.25;;;9.50;99.90;;;;;;5124599;27;19962;-74
2023/04/01 13:31:05;;;;;;;2.70;2.03;;;9.50;99.90;;;;;;5114282;28;20051;-74
2023/04/01 13:33:32;;;;;;;3.00;2.10;;;9.60;99.90;;;;;;5096924;28;20048;-73
2023/04/01 13:36:06;;;;;;;3.42;2.00;;;9.70;99.90;;;;;;5124549;27;20086;-75